^^
Station Historical Data
Daily Summary for December 7, 2017 Units:  Metric    English   Both
« Previous Day
Next Day »
Daily Weekly Monthly Yearly Custom
  High: Low: Average:
Temperature: 32.3 °C 14.9 °C 22.6 °C
Dew Point: 14.5 °C 7.7 °C 10.8 °C
Humidity: 91% 24% 51%
Wind Speed: 16.3km/h 0km/h 3.7km/h
Wind Gust: 35.4km/h - -
Wind- - SE
Pressure: 1027.7 hPa 1006.3 hPa -
Precipitation: 9.65 mm    
Historical Graphs
 
 
Tabular Data for December 7, 2017
Time Temperature Dew Point Pressure Wind Wind Speed Wind Gust Humidity Rainfall Rate (Hourly) solar Conditions
00:01 20.7 °C 11.6 °C 1023.2 hPa Calm     56% 0 mm 0.0 W/m2
00:06 20.7 °C 11.6 °C 1023.2 hPa Calm     56% 0 mm 0.0 W/m2
00:11 20.7 °C 11.6 °C 1023.2 hPa Calm   1.6 km/h 56% 0 mm 0.0 W/m2
00:17 20.7 °C 11.6 °C 1023.2 hPa Calm     56% 0 mm 0.0 W/m2
00:22 20.7 °C 11.6 °C 1023.2 hPa Calm     56% 0 mm 0.0 W/m2
00:27 20.7 °C 11.6 °C 1023.2 hPa Calm     56% 0 mm 0.0 W/m2
00:32 20.6 °C 11.8 °C 1023.2 hPa SSE 3.2 km/h 3.2 km/h 57% 0 mm 0.0 W/m2
00:37 20.6 °C 12 °C 1023.2 hPa Calm   1.6 km/h 58% 0 mm 0.0 W/m2
00:42 20.5 °C 12 °C 1023.2 hPa Calm   1.6 km/h 58% 0 mm 0.0 W/m2
00:47 20.4 °C 11.9 °C 1022.9 hPa Calm   1.6 km/h 58% 0 mm 0.0 W/m2
00:52 20.4 °C 11.9 °C 1022.9 hPa Calm   1.6 km/h 58% 0 mm 0.0 W/m2
00:58 20.4 °C 11.9 °C 1022.9 hPa Calm   1.6 km/h 58% 0 mm 0.0 W/m2
01:03 20.3 °C 11.8 °C 1022.9 hPa SE 3.2 km/h 4.8 km/h 58% 0 mm 0.0 W/m2
01:08 20.3 °C 11.8 °C 1022.9 hPa Calm   3.2 km/h 58% 0 mm 0.0 W/m2
01:13 20.2 °C 11.7 °C 1022.9 hPa Calm   4.8 km/h 58% 0 mm 0.0 W/m2
01:18 20.1 °C 11.6 °C 1022.6 hPa Calm   3.2 km/h 58% 0 mm 0.0 W/m2
01:23 20 °C 11.7 °C 1022.6 hPa Calm   3.2 km/h 59% 0 mm 0.0 W/m2
01:28 19.9 °C 11.6 °C 1022.6 hPa Calm   3.2 km/h 59% 0 mm 0.0 W/m2
01:39 19.8 °C 11.6 °C 1022.6 hPa Calm   3.2 km/h 59% 0 mm 0.0 W/m2
01:44 19.8 °C 11.6 °C 1022.6 hPa Calm     59% 0 mm 0.0 W/m2
01:49 19.7 °C 11.5 °C 1022.6 hPa Calm     59% 0 mm 0.0 W/m2
01:54 19.7 °C 11.5 °C 1022.6 hPa Calm     59% 0 mm 0.0 W/m2
01:59 19.6 °C 11.4 °C 1022.6 hPa Calm   1.6 km/h 59% 0 mm 0.0 W/m2
02:04 19.6 °C 11.4 °C 1022.2 hPa Calm   1.6 km/h 59% 0 mm 0.0 W/m2
02:09 19.5 °C 11.3 °C 1022.2 hPa Calm   1.6 km/h 59% 0 mm 0.0 W/m2
02:14 19.4 °C 11.2 °C 1022.6 hPa Calm   4.8 km/h 59% 0 mm 0.0 W/m2
02:19 19.4 °C 10.9 °C 1022.2 hPa Calm   1.6 km/h 58% 0 mm 0.0 W/m2
02:24 19.4 °C 10.9 °C 1022.2 hPa Calm     58% 0 mm 0.0 W/m2
02:30 19.3 °C 10.8 °C 1022.2 hPa SE 1.4 km/h 1.6 km/h 58% 0 mm 0.0 W/m2
02:35 19.3 °C 10.8 °C 1021.9 hPa SE 1.4 km/h 3.2 km/h 58% 0 mm 0.0 W/m2
02:40 19.2 °C 10.7 °C 1021.9 hPa Calm     58% 0 mm 0.0 W/m2
02:45 19.2 °C 10.7 °C 1021.9 hPa Calm     58% 0 mm 0.0 W/m2
02:50 19.1 °C 10.4 °C 1022.2 hPa Calm     57% 0 mm 0.0 W/m2
02:55 19.1 °C 10.6 °C 1022.2 hPa ESE 1.4 km/h 4.8 km/h 58% 0 mm 0.0 W/m2
03:00 18.9 °C 10.7 °C 1022.2 hPa Calm   4.8 km/h 59% 0 mm 0.0 W/m2
03:05 18.9 °C 11 °C 1022.2 hPa Calm   3.2 km/h 60% 0 mm 0.0 W/m2
03:11 18.8 °C 11.1 °C 1021.9 hPa Calm     61% 0 mm 0.0 W/m2
03:17 18.7 °C 11.3 °C 1022.2 hPa Calm   1.6 km/h 62% 0 mm 0.0 W/m2
03:22 18.7 °C 11.3 °C 1021.9 hPa Calm     62% 0 mm 0.0 W/m2
03:27 18.6 °C 11.2 °C 1021.9 hPa Calm   3.2 km/h 62% 0 mm 0.0 W/m2
03:32 18.6 °C 10.9 °C 1021.9 hPa South 1.4 km/h 4.8 km/h 61% 0 mm 0.0 W/m2
03:37 18.5 °C 10.3 °C 1021.9 hPa Calm   3.2 km/h 59% 0 mm 0.0 W/m2
03:42 18.5 °C 10.1 °C 1021.9 hPa Calm   4.8 km/h 58% 0 mm 0.0 W/m2
03:47 18.6 °C 10.2 °C 1021.9 hPa Calm   1.6 km/h 58% 0 mm 0.0 W/m2
03:52 18.6 °C 10.2 °C 1021.9 hPa Calm     58% 0 mm 0.0 W/m2
03:58 18.6 °C 10.4 °C 1021.9 hPa Calm     59% 0 mm 0.0 W/m2
04:03 18.5 °C 10.3 °C 1021.9 hPa Calm     59% 0 mm 0.0 W/m2
04:08 18.4 °C 10.2 °C 1021.9 hPa Calm     59% 0 mm 0.0 W/m2
04:13 18.3 °C 9.9 °C 1021.9 hPa SE 3.2 km/h 3.2 km/h 58% 0 mm 0.0 W/m2
04:18 18.2 °C 10.3 °C 1022.2 hPa Calm   3.2 km/h 60% 0 mm 0.0 W/m2
04:24 18.1 °C 10.5 °C 1022.2 hPa Calm   1.6 km/h 61% 0 mm 0.0 W/m2
04:29 17.9 °C 10.3 °C 1022.2 hPa Calm   1.6 km/h 61% 0 mm 0.0 W/m2
04:34 17.8 °C 10.4 °C 1022.2 hPa ENE 1.4 km/h 3.2 km/h 62% 0 mm 0.0 W/m2
04:40 17.7 °C 10.6 °C 1022.2 hPa Calm   4.8 km/h 63% 0 mm 0.0 W/m2
04:45 17.6 °C 10.7 °C 1022.2 hPa Calm   3.2 km/h 64% 0 mm 0.0 W/m2
04:50 17.6 °C 10.7 °C 1022.2 hPa Calm   3.2 km/h 64% 0 mm 0.0 W/m2
04:56 17.5 °C 10.6 °C 1022.2 hPa Calm   1.6 km/h 64% 0 mm 0.0 W/m2
05:01 17.4 °C 10.5 °C 1022.2 hPa Calm   1.6 km/h 64% 0 mm 0.0 W/m2
05:06 17.4 °C 10.3 °C 1022.2 hPa Calm   1.6 km/h 63% 0 mm 0.0 W/m2
05:11 17.5 °C 10.4 °C 1022.2 hPa Calm   1.6 km/h 63% 0 mm 0.0 W/m2
05:17 17.6 °C 10.2 °C 1022.2 hPa Calm   3.2 km/h 62% 0 mm 0.0 W/m2
05:22 17.6 °C 10 °C 1022.2 hPa Calm     61% 0 mm 0.0 W/m2
05:24 17.6 °C 10 °C 1006.3 hPa Calm     61% 0 mm 0.0 W/m2
05:30 17.6 °C 10 °C 1022.2 hPa East 1.4 km/h 1.6 km/h 61% 0 mm 0.0 W/m2
05:35 17.6 °C 9.7 °C 1022.2 hPa Calm   6.4 km/h 60% 0 mm 0.0 W/m2
05:38 17.6 °C 9.7 °C 1022.2 hPa NE 3.2 km/h 3.2 km/h 60% 0 mm 0.0 W/m2
05:43 17.6 °C 10 °C 1022.2 hPa Calm   6.4 km/h 61% 0 mm 0.0 W/m2
05:48 17.6 °C 10.2 °C 1022.2 hPa Calm   4.8 km/h 62% 0 mm 0.0 W/m2
05:54 17.4 °C 10.3 °C 1022.2 hPa Calm   4.8 km/h 63% 0 mm 0.0 W/m2
05:59 17.4 °C 10.5 °C 1022.6 hPa East 1.4 km/h 4.8 km/h 64% 0 mm 0.0 W/m2
06:04 17.3 °C 10.7 °C 1022.6 hPa Calm   1.6 km/h 65% 0 mm 0.0 W/m2
06:09 17.2 °C 10.3 °C 1022.6 hPa ENE 3.2 km/h 3.2 km/h 64% 0 mm 5.0 W/m2
06:14 17.2 °C 10.1 °C 1022.6 hPa Calm     63% 0 mm 7.0 W/m2
06:19 17.1 °C 10 °C 1022.9 hPa ESE 1.4 km/h 4.8 km/h 63% 0 mm 11.0 W/m2
06:24 17.1 °C 10 °C 1022.9 hPa Calm   1.6 km/h 63% 0 mm 16.0 W/m2
06:29 17.1 °C 10 °C 1022.9 hPa ENE 3.2 km/h 3.2 km/h 63% 0 mm 19.0 W/m2
06:35 17.2 °C 10.1 °C 1022.9 hPa ENE 3.2 km/h 4.8 km/h 63% 0 mm 21.0 W/m2
06:40 17.2 °C 10.1 °C 1023.2 hPa Calm   3.2 km/h 63% 0 mm 23.0 W/m2
06:45 17.4 °C 10.5 °C 1023.2 hPa NE 1.4 km/h 6.4 km/h 64% 0 mm 28.0 W/m2
06:51 17.6 °C 10.5 °C 1023.2 hPa East 1.4 km/h 4.8 km/h 63% 0 mm 54.0 W/m2
06:56 17.8 °C 10.2 °C 1023.2 hPa East 3.2 km/h 6.4 km/h 61% 0 mm 79.0 W/m2
07:01 18.1 °C 10.5 °C 1023.2 hPa ENE 1.4 km/h 8 km/h 61% 0 mm 88.0 W/m2
07:07 18.6 °C 10.7 °C 1023.2 hPa NE 7.9 km/h 11.3 km/h 60% 0 mm 93.0 W/m2
07:12 18.9 °C 10.7 °C 1023.2 hPa Calm   4.8 km/h 59% 0 mm 81.0 W/m2
07:17 19.1 °C 10.6 °C 1023.2 hPa Calm   1.6 km/h 58% 0 mm 86.0 W/m2
07:22 19.3 °C 10.6 °C 1023.2 hPa Calm   3.2 km/h 57% 0 mm 105.0 W/m2
07:27 19.6 °C 10.8 °C 1023.2 hPa ENE 1.4 km/h 3.2 km/h 57% 0 mm 109.0 W/m2
07:33 19.9 °C 10.9 °C 1023.6 hPa Calm   1.6 km/h 56% 0 mm 91.0 W/m2
07:38 20.2 °C 10.9 °C 1023.6 hPa Calm   4.8 km/h 55% 0 mm 100.0 W/m2
07:43 20.4 °C 10.8 °C 1023.6 hPa Calm   4.8 km/h 54% 0 mm 114.0 W/m2
07:49 20.7 °C 11.1 °C 1023.6 hPa East 3.2 km/h 4.8 km/h 54% 0 mm 127.0 W/m2
07:54 20.9 °C 11.5 °C 1023.9 hPa NE 4.7 km/h 6.4 km/h 55% 0 mm 223.0 W/m2
07:59 21.4 °C 11.7 °C 1023.9 hPa ENE 6.4 km/h 9.7 km/h 54% 0 mm 146.0 W/m2
08:04 21.8 °C 11.5 °C 1023.9 hPa ENE 3.2 km/h 6.4 km/h 52% 0 mm 142.0 W/m2
08:09 22.1 °C 11.8 °C 1023.9 hPa ENE 1.4 km/h 8 km/h 52% 0 mm 142.0 W/m2
08:14 22.2 °C 11.3 °C 1023.9 hPa East 1.4 km/h 6.4 km/h 50% 0 mm 148.0 W/m2
08:19 22.4 °C 10.5 °C 1023.9 hPa NE 3.2 km/h 4.8 km/h 47% 0 mm 123.0 W/m2
08:25 22.6 °C 11 °C 1023.9 hPa East 3.2 km/h 4.8 km/h 48% 0 mm 127.0 W/m2
08:30 22.9 °C 10.7 °C 1023.9 hPa NNE 1.4 km/h 3.2 km/h 46% 0 mm 160.0 W/m2
08:35 23.1 °C 10.8 °C 1023.9 hPa NW 3.2 km/h 3.2 km/h 46% 0 mm 179.0 W/m2
08:41 23.3 °C 11 °C 1023.9 hPa NNW 1.4 km/h 6.4 km/h 46% 0 mm 199.0 W/m2
08:46 23.4 °C 10.8 °C 1024.3 hPa NNW 3.2 km/h 4.8 km/h 45% 0 mm 218.0 W/m2
08:51 23.4 °C 10.8 °C 1024.3 hPa Calm   6.4 km/h 45% 0 mm 171.0 W/m2
08:56 23.4 °C 10.8 °C 1024.3 hPa NNW 1.4 km/h 8 km/h 45% 0 mm 664.0 W/m2
09:01 23.8 °C 10.8 °C 1024.3 hPa NNW 3.2 km/h 8 km/h 44% 0 mm 661.0 W/m2
09:06 24.2 °C 10.8 °C 1024.3 hPa Calm   8 km/h 43% 0 mm 677.0 W/m2
09:12 24.7 °C 10.6 °C 1024.3 hPa North 4.7 km/h 8 km/h 41% 0 mm 698.0 W/m2
09:18 25.3 °C 10.7 °C 1024.3 hPa NNW 3.2 km/h 9.7 km/h 40% 0 mm 708.0 W/m2
09:22 25.7 °C 10.3 °C 1024.3 hPa ENE 13 km/h 13 km/h 38% 0 mm 735.0 W/m2
09:28 26.1 °C 10.3 °C 1024.3 hPa NNE 3.2 km/h 11.3 km/h 37% 0 mm 751.0 W/m2
09:33 26.3 °C 10.4 °C 1024.3 hPa East 6.4 km/h 12.9 km/h 37% 0 mm 758.0 W/m2
09:38 26.5 °C 10.2 °C 1023.9 hPa ESE 7.9 km/h 19.3 km/h 36% 0 mm 766.0 W/m2
09:44 26.4 °C 10.1 °C 1023.9 hPa NNW 1.4 km/h 8 km/h 36% 0 mm 780.0 W/m2
09:49 26.6 °C 10.3 °C 1023.9 hPa ENE 7.9 km/h 14.5 km/h 36% 0 mm 798.0 W/m2
09:54 26.9 °C 10.1 °C 1023.9 hPa NE 1.4 km/h 9.7 km/h 35% 0 mm 810.0 W/m2
09:59 27.1 °C 9.9 °C 1023.9 hPa NNE 4.7 km/h 12.9 km/h 34% 0 mm 824.0 W/m2
10:04 27.3 °C 9.6 °C 1023.9 hPa NNW 7.9 km/h 11.3 km/h 33% 0 mm 835.0 W/m2
10:09 27.5 °C 9.8 °C 1023.9 hPa East 1.4 km/h 9.7 km/h 33% 0 mm 851.0 W/m2
10:14 27.6 °C 9.9 °C 1023.9 hPa ENE 13 km/h 14.5 km/h 33% 0 mm 898.0 W/m2
10:19 27.7 °C 9 °C 1023.9 hPa SE 4.7 km/h 8 km/h 31% 0 mm 907.0 W/m2
10:25 27.8 °C 9.1 °C 1023.9 hPa NNE 11.1 km/h 12.9 km/h 31% 0 mm 912.0 W/m2
10:30 28 °C 9.8 °C 1023.9 hPa Calm   4.8 km/h 32% 0 mm 930.0 W/m2
10:35 28.3 °C 9.6 °C 1023.9 hPa East 1.4 km/h 12.9 km/h 31% 0 mm 940.0 W/m2
10:40 28.7 °C 9.9 °C 1023.9 hPa East 13 km/h 13 km/h 31% 0 mm 939.0 W/m2
10:45 29.1 °C 9.8 °C 1023.6 hPa NNE 16.3 km/h 16.3 km/h 30% 0 mm 944.0 W/m2
10:50 29.1 °C 9.3 °C 1023.6 hPa North 6.4 km/h 16.1 km/h 29% 0 mm 953.0 W/m2
10:55 29 °C 9.7 °C 1023.9 hPa ESE 6.4 km/h 14.5 km/h 30% 0 mm 958.0 W/m2
11:00 29.1 °C 9.8 °C 1023.6 hPa ENE 9.7 km/h 19.3 km/h 30% 0 mm 974.0 W/m2
11:05 29.2 °C 9.8 °C 1023.6 hPa ESE 14.3 km/h 17.7 km/h 30% 0 mm 977.0 W/m2
11:10 29.1 °C 8.7 °C 1023.6 hPa NE 4.7 km/h 16.1 km/h 28% 0 mm 986.0 W/m2
11:15 29.3 °C 8.9 °C 1023.6 hPa ENE 11.1 km/h 17.7 km/h 28% 0 mm 990.0 W/m2
11:20 29.6 °C 9.7 °C 1023.6 hPa North 1.4 km/h 9.7 km/h 29% 0 mm 1000.0 W/m2
11:25 29.6 °C 9.2 °C 1023.6 hPa North 4.7 km/h 16.1 km/h 28% 0 mm 1011.0 W/m2
11:30 29.7 °C 9.2 °C 1023.6 hPa ENE 9.7 km/h 16.1 km/h 28% 0 mm 1014.0 W/m2
11:35 29.8 °C 9.3 °C 1023.2 hPa NE 7.9 km/h 22.5 km/h 28% 0 mm 1016.0 W/m2
11:40 29.8 °C 9.3 °C 1023.2 hPa SSE 4.7 km/h 8 km/h 28% 0 mm 1025.0 W/m2
11:45 29.9 °C 8.9 °C 1023.2 hPa ENE 7.9 km/h 12.9 km/h 27% 0 mm 1034.0 W/m2
11:50 30 °C 9 °C 1023.2 hPa SE 1.4 km/h 14.5 km/h 27% 0 mm 1042.0 W/m2
11:55 30.1 °C 9 °C 1022.9 hPa East 4.7 km/h 9.7 km/h 27% 0 mm 1053.0 W/m2
12:00 30.2 °C 9.1 °C 1022.9 hPa SE 13 km/h 17.7 km/h 27% 0 mm 1060.0 W/m2
12:06 30.1 °C 8.5 °C 1022.9 hPa SSE 6.4 km/h 9.7 km/h 26% 0 mm 1083.0 W/m2
12:11 30.3 °C 9.8 °C 1022.9 hPa ENE 1.4 km/h 20.9 km/h 28% 0 mm 1132.0 W/m2
12:17 29.8 °C 8.8 °C 1022.9 hPa ESE 4.7 km/h 9.7 km/h 27% 0 mm 176.0 W/m2
12:22 29.6 °C 9.2 °C 1022.9 hPa Calm   6.4 km/h 28% 0 mm 158.0 W/m2
12:27 29.3 °C 8.9 °C 1022.9 hPa NNE 6.4 km/h 9.7 km/h 28% 0 mm 186.0 W/m2
12:32 29.1 °C 8.7 °C 1022.6 hPa ENE 1.4 km/h 12.9 km/h 28% 0 mm 287.0 W/m2
12:37 29.3 °C 9.4 °C 1022.6 hPa NNW 9.7 km/h 14.5 km/h 29% 0 mm 1227.0 W/m2
12:42 29.9 °C 8.9 °C 1022.6 hPa NE 6.4 km/h 14.5 km/h 27% 0 mm 1158.0 W/m2
12:47 30.2 °C 9.1 °C 1022.2 hPa WNW 3.2 km/h 6.4 km/h 27% 0 mm 1127.0 W/m2
12:52 30.4 °C 8.7 °C 1022.2 hPa Calm   8 km/h 26% 0 mm 1158.0 W/m2
12:57 30.9 °C 9.2 °C 1022.2 hPa SSW 1.4 km/h 14.5 km/h 26% 0 mm 1167.0 W/m2
13:02 31.1 °C 8.8 °C 1022.2 hPa North 3.2 km/h 6.4 km/h 25% 0 mm 1178.0 W/m2
13:12 31.7 °C 9.3 °C 1021.9 hPa Calm   4.8 km/h 25% 0 mm 1225.0 W/m2
13:18 31.8 °C 9.3 °C 1021.9 hPa East 4.7 km/h 20.9 km/h 25% 0 mm 1209.0 W/m2
13:23 32.2 °C 9.1 °C 1021.9 hPa NNW 4.7 km/h 11.3 km/h 24% 0 mm 642.0 W/m2
13:28 32.3 °C 9.2 °C 1021.9 hPa NE 6.4 km/h 11.3 km/h 24% 0 mm 257.0 W/m2
13:33 31.6 °C 9.8 °C 1021.6 hPa North 7.9 km/h 9.7 km/h 26% 0 mm 221.0 W/m2
13:38 30.7 °C 9.6 °C 1021.6 hPa North 6.4 km/h 17.7 km/h 27% 0 mm 195.0 W/m2
13:43 29.9 °C 9.4 °C 1021.6 hPa NNE 13 km/h 13 km/h 28% 0 mm 176.0 W/m2
13:48 29.6 °C 10.2 °C 1021.6 hPa NNW 6.4 km/h 11.3 km/h 30% 0 mm 132.0 W/m2
13:53 29.3 °C 9.4 °C 1021.6 hPa NNW 3.2 km/h 16.1 km/h 29% 0 mm 134.0 W/m2
13:58 29 °C 9.7 °C 1021.6 hPa NNW 4.7 km/h 9.7 km/h 30% 0 mm 130.0 W/m2
14:03 28.9 °C 9.6 °C 1021.6 hPa NNW 9.7 km/h 16.1 km/h 30% 0 mm 137.0 W/m2
14:09 28.8 °C 12.2 °C 1021.2 hPa North 3.2 km/h 9.7 km/h 36% 0 mm 156.0 W/m2
14:13 28.4 °C 14.2 °C 1021.2 hPa North 1.4 km/h 8 km/h 42% 0 mm 237.0 W/m2
14:18 27.9 °C 12.7 °C 1021.2 hPa Calm   8 km/h 39% 0 mm 868.0 W/m2
14:23 27.9 °C 12.3 °C 1020.9 hPa NNW 3.2 km/h 3.2 km/h 38% 0 mm 278.0 W/m2
14:28 28 °C 10.7 °C 1020.9 hPa Calm   4.8 km/h 34% 0 mm 241.0 W/m2
14:33 28.1 °C 11.2 °C 1020.9 hPa South 1.4 km/h 1.6 km/h 35% 0 mm 308.0 W/m2
14:38 28.2 °C 9.5 °C 1020.5 hPa South 1.4 km/h 4.8 km/h 31% 0 mm 234.0 W/m2
14:43 28.3 °C 9.1 °C 1020.5 hPa WSW 1.4 km/h 3.2 km/h 30% 0 mm 276.0 W/m2
14:49 28.3 °C 9.1 °C 1020.5 hPa Calm   3.2 km/h 30% 0 mm 752.0 W/m2
14:54 28.6 °C 9.8 °C 1020.5 hPa West 4.7 km/h 9.7 km/h 31% 0 mm 571.0 W/m2
14:59 28.8 °C 9.5 °C 1020.5 hPa Calm   3.2 km/h 30% 0 mm 246.0 W/m2
15:04 28.9 °C 9.6 °C 1020.5 hPa Calm   3.2 km/h 30% 0 mm 251.0 W/m2
15:09 29 °C 9.7 °C 1020.5 hPa WSW 3.2 km/h 3.2 km/h 30% 0 mm 325.0 W/m2
15:14 29.1 °C 9.3 °C 1020.2 hPa Calm   1.6 km/h 29% 0 mm 299.0 W/m2
15:19 29.2 °C 9.3 °C 1020.2 hPa Calm   6.4 km/h 29% 0 mm 352.0 W/m2
15:24 29.2 °C 8.8 °C 1019.9 hPa NW 7.9 km/h 9.7 km/h 28% 0 mm 367.0 W/m2
15:34 29.7 °C 9.2 °C 1019.5 hPa WNW 7.9 km/h 8 km/h 28% 0 mm 415.0 W/m2
15:40 29.8 °C 7.7 °C 1019.9 hPa WNW 7.9 km/h 8 km/h 25% 0 mm 550.0 W/m2
15:50 29.7 °C 8.1 °C 1019.9 hPa WSW 4.7 km/h 11.3 km/h 26% 0 mm 536.0 W/m2
16:05 29.1 °C 9.8 °C 1019.9 hPa NNW 9.7 km/h 19.3 km/h 30% 0 mm 153.0 W/m2
16:10 28.4 °C 10.1 °C 1019.9 hPa North 4.7 km/h 20.9 km/h 32% 0 mm 146.0 W/m2
16:15 27.9 °C 10.1 °C 1019.9 hPa NNW 7.9 km/h 17.7 km/h 33% 0 mm 134.0 W/m2
16:21 27.7 °C 10 °C 1019.9 hPa WNW 1.4 km/h 14.5 km/h 33% 0 mm 128.0 W/m2
16:31 27.2 °C 10.8 °C 1019.9 hPa NNW 13 km/h 13 km/h 36% 0 mm 104.0 W/m2
16:41 26.7 °C 8.6 °C 1019.9 hPa NNW 3.2 km/h 17.7 km/h 32% 0 mm 165.0 W/m2
16:46 26.9 °C 8.8 °C 1019.9 hPa WNW 4.7 km/h 17.7 km/h 32% 0 mm 510.0 W/m2
16:51 27.2 °C 9.1 °C 1019.9 hPa NNW 4.7 km/h 19.3 km/h 32% 0 mm 619.0 W/m2
16:56 27.6 °C 8.9 °C 1019.9 hPa NNW 14.3 km/h 24.1 km/h 31% 0 mm 555.0 W/m2
17:01 27.7 °C 9.5 °C 1019.9 hPa NNW 3.2 km/h 20.9 km/h 32% 0 mm 545.0 W/m2
17:06 28.1 °C 9.4 °C 1019.9 hPa NNW 11.1 km/h 16.1 km/h 31% 0 mm 587.0 W/m2
17:32 27.6 °C 8 °C 1020.2 hPa NW 4.7 km/h 9.7 km/h 29% 0 mm 158.0 W/m2
17:37 27.5 °C 8.4 °C 1020.2 hPa NNW 7.9 km/h 8 km/h 30% 0 mm 213.0 W/m2
17:42 27.6 °C 8.9 °C 1020.5 hPa NNE 9.7 km/h 17.7 km/h 31% 0 mm 130.0 W/m2
17:52 27.3 °C 10.9 °C 1020.5 hPa NE 9.7 km/h 17.7 km/h 36% 0 mm 153.0 W/m2
17:57 26.9 °C 11.4 °C 1020.5 hPa ENE 7.9 km/h 14.5 km/h 38% 0 mm 401.0 W/m2
18:03 26.7 °C 11.6 °C 1020.5 hPa ENE 4.7 km/h 14.5 km/h 39% 0 mm 144.0 W/m2
18:08 26.2 °C 11.5 °C 1020.5 hPa ENE 3.2 km/h 12.9 km/h 40% 0 mm 98.0 W/m2
18:13 25.9 °C 10.5 °C 1020.9 hPa ENE 11.1 km/h 12.9 km/h 38% 0 mm 60.0 W/m2
18:23 24.5 °C 11.1 °C 1021.6 hPa NE 16.3 km/h 25.7 km/h 43% 0 mm 47.0 W/m2
18:28 23.6 °C 11.3 °C 1021.9 hPa East 6.4 km/h 29 km/h 46% 0 mm 30.0 W/m2
18:33 22.8 °C 11.5 °C 1021.9 hPa NE 11.1 km/h 29 km/h 49% 0 mm 23.0 W/m2
18:38 22.5 °C 11.6 °C 1021.9 hPa ESE 6.4 km/h 16.1 km/h 50% 0 mm 28.0 W/m2
18:54 21.2 °C 12.6 °C 1021.6 hPa East 16.3 km/h 32.2 km/h 58% 0 mm 14.0 W/m2
18:59 20.7 °C 12.7 °C 1021.6 hPa NE 16.3 km/h 20.9 km/h 60% 0 mm 7.0 W/m2
19:04 20.4 °C 12.6 °C 1021.6 hPa NNE 3.2 km/h 30.6 km/h 61% 0 mm 0.0 W/m2
19:14 20.4 °C 12.1 °C 1021.9 hPa NE 9.7 km/h 24.1 km/h 59% 0 mm 0.0 W/m2
19:30 20.1 °C 12.3 °C 1022.2 hPa ENE 13 km/h 35.4 km/h 61% 0 mm 0.0 W/m2
19:35 19.9 °C 12.4 °C 1022.2 hPa ENE 14.3 km/h 22.5 km/h 62% 0 mm 0.0 W/m2
19:40 19.8 °C 12.3 °C 1022.9 hPa NE 11.1 km/h 27.4 km/h 62% 0 mm 0.0 W/m2
19:50 19.9 °C 12.4 °C 1023.6 hPa North 13 km/h 17.7 km/h 62% 0 mm 0.0 W/m2
19:55 19.9 °C 12.4 °C 1023.6 hPa ENE 11.1 km/h 20.9 km/h 62% 0 mm 0.0 W/m2
20:05 19.7 °C 13.4 °C 1024.3 hPa NE 6.4 km/h 16.1 km/h 67% 0 mm 0.0 W/m2
20:10 19.4 °C 13.8 °C 1024.3 hPa East 7.9 km/h 12.9 km/h 70% 0 mm 0.0 W/m2
20:26 18.8 °C 14.1 °C 1025.3 hPa SE 4.7 km/h 12.9 km/h 74% 0.51 mm 0.0 W/m2
20:31 18.5 °C 14.2 °C 1026 hPa ESE 14.3 km/h 14.5 km/h 76% 0.51 mm 0.0 W/m2
20:36 18.2 °C 14.5 °C 1026 hPa SSW 7.9 km/h 16.1 km/h 79% 1.27 mm 0.0 W/m2
20:51 16.4 °C 13.9 °C 1027 hPa ESE 14.3 km/h 16.1 km/h 85% 2.29 mm 0.0 W/m2
20:56 16.1 °C 13.8 °C 1027.3 hPa SW 4.7 km/h 14.5 km/h 86% 2.29 mm 0.0 W/m2
21:01 15.9 °C 13.7 °C 1027.3 hPa SSW 1.4 km/h 16.1 km/h 87% 2.79 mm 0.0 W/m2
21:06 15.8 °C 13.8 °C 1027.3 hPa SE 14.3 km/h 14.5 km/h 88% 3.3 mm 0.0 W/m2
21:11 15.7 °C 13.7 °C 1027.3 hPa NE 6.4 km/h 14.5 km/h 88% 3.56 mm 0.0 W/m2
21:16 15.6 °C 13.8 °C 1027.3 hPa South 6.4 km/h 8 km/h 89% 3.81 mm 0.0 W/m2
21:26 15.6 °C 14 °C 1027.3 hPa SSW 13 km/h 17.7 km/h 90% 5.33 mm 0.0 W/m2
21:43 15.4 °C 13.8 °C 1027.7 hPa SSE 6.4 km/h 16.1 km/h 90% 4.83 mm 0.0 W/m2
21:54 15.4 °C 13.8 °C 1027.7 hPa SE 11.1 km/h 14.5 km/h 90% 5.08 mm 0.0 W/m2
22:04 15.2 °C 13.2 °C 1027.3 hPa East 4.7 km/h 14.5 km/h 88% 5.08 mm 0.0 W/m2
22:09 15.1 °C 13.1 °C 1027.3 hPa ESE 6.4 km/h 11.3 km/h 88% 5.08 mm 0.0 W/m2
22:14 15 °C 13 °C 1027.3 hPa SE 3.2 km/h 9.7 km/h 88% 5.33 mm 0.0 W/m2
22:19 14.9 °C 13.1 °C 1027.7 hPa Calm   9.7 km/h 89% 5.08 mm 0.0 W/m2
22:24 14.9 °C 13.1 °C 1027.7 hPa Calm   4.8 km/h 89% 4.06 mm 0.0 W/m2
22:35 15 °C 13.4 °C 1027.3 hPa Calm   1.6 km/h 90% 3.3 mm 0.0 W/m2
22:40 14.9 °C 13.1 °C 1027.3 hPa Calm     89% 3.3 mm 0.0 W/m2
22:45 14.9 °C 13.3 °C 1027.3 hPa Calm     90% 3.05 mm 0.0 W/m2
22:50 14.9 °C 13.3 °C 1027.3 hPa Calm     90% 2.54 mm 0.0 W/m2
22:55 14.9 °C 13.3 °C 1027.3 hPa Calm   1.6 km/h 90% 2.29 mm 0.0 W/m2
23:00 15.1 °C 13.6 °C 1027.3 hPa Calm   4.8 km/h 91% 1.52 mm 0.0 W/m2
23:05 15.1 °C 13.6 °C 1027.3 hPa Calm   1.6 km/h 91% 1.27 mm 0.0 W/m2
23:22 15 °C 13 °C 1026.6 hPa Calm   1.6 km/h 88% 0.25 mm 0.0 W/m2
23:27 15.1 °C 13.5 °C 1026.3 hPa NNE 3.2 km/h 6.4 km/h 90% 0 mm 0.0 W/m2
23:32 15.2 °C 13.6 °C 1026 hPa ESE 1.4 km/h 9.7 km/h 90% 0 mm 0.0 W/m2
23:37 15.2 °C 13.6 °C 1025.6 hPa East 1.4 km/h 11.3 km/h 90% 0 mm 0.0 W/m2
23:42 15.2 °C 13.6 °C 1026 hPa Calm   1.6 km/h 90% 0 mm 0.0 W/m2
23:52 15.2 °C 13.6 °C 1026 hPa Calm   4.8 km/h 90% 0 mm 0.0 W/m2
23:57 15.2 °C 13.4 °C 1026 hPa Calm     89% 0 mm 0.0 W/m2
Olympia, Windhoek, Namibia
Compliments of Weather Underground - 3.25 mb